Cherokee — 9HBC7 — position and weather

sailwx.info

Track history (hours):
 
Tides and Currents Weather Stations Pressure Air Temp Water Temp Dewpoint Dewpoint Depression Visibility Wind Speed Wind Dir Waves Ship Positions

Cherokee

Last reported at 2018-Apr-20 05:55 UTC. Time now 2018-Apr-21 13:24 UTC.
Position N 45°29' E 036°46'.

Length 140 m; draft 2.6 m.

Type: Cargo ship. MMSI: 215059000.

Date/timePositionNaut miles runAvg speedWind from/ knotsBaromVisibWave heightAir tempDewpointWater temp
2018-Apr-20 05:55N 45°29' E 036°46'3 7.6
2018-Apr-20 05:30N 45°26' E 036°44'3 6.9
2018-Apr-20 05:00N 45°24' E 036°41'3 6.3
2018-Apr-20 04:30N 45°21' E 036°39'3 5.9
2018-Apr-20 04:00N 45°20' E 036°35'4 8.0
2018-Apr-20 03:30N 45°18' E 036°30'3 6.2
2018-Apr-20 03:00N 45°15' E 036°29'2 3.1
2018-Apr-20 02:26N 45°14' E 036°30'0 0.0
2018-Apr-19 23:20N 45°14' E 036°30'0 0.0
2018-Apr-19 22:59N 45°14' E 036°30'0 0.4
2018-Apr-19 22:30N 45°14' E 036°30'3 5.9
2018-Apr-19 22:00N 45°11' E 036°30'  
2018-Apr-10 13:53N 45°08' E 036°28'3 7.9
2018-Apr-10 13:30N 45°11' E 036°28'4 7.9
2018-Apr-10 13:00N 45°15' E 036°28'4 6.6
2018-Apr-10 12:28N 45°18' E 036°30'4 7.9
2018-Apr-10 12:00N 45°20' E 036°35'4 7.4
2018-Apr-10 11:31N 45°22' E 036°40'3 6.0
2018-Apr-10 11:00N 45°25' E 036°41'3 6.0
2018-Apr-10 10:30N 45°28' E 036°40'1 1.9
2018-Apr-10 09:46N 45°29' E 036°39'0 0.1
2018-Apr-10 09:28N 45°29' E 036°39'0 0.0
2018-Apr-10 08:31N 45°29' E 036°39'0 0.1
2018-Apr-10 08:28N 45°29' E 036°39'0 0.0
2018-Apr-10 07:55N 45°29' E 036°39'0 0.0
2018-Apr-10 07:28N 45°29' E 036°39'0 0.0
2018-Apr-10 06:58N 45°29' E 036°39'0 0.0
2018-Apr-10 06:28N 45°29' E 036°39'0 0.0
2018-Apr-10 05:58N 45°29' E 036°39'  
Track history (hours):
 
Tides and Currents Weather Stations Pressure Air Temp Water Temp Dewpoint Dewpoint Depression Visibility Wind Speed Wind Dir Waves Ship Positions

Cherokee

Last reported at 2018-Apr-20 05:55 UTC. Time now 2018-Apr-21 13:24 UTC.
Position N 45°29' E 036°46'.

Length 140 m; draft 2.6 m.

Type: Cargo ship. MMSI: 215059000.

Date/timePositionNaut miles runAvg speedWind from/ knotsBaromVisibWave heightAir tempDewpointWater temp
2018-Apr-20 05:55N 45°29' E 036°46'3 7.6
2018-Apr-20 05:30N 45°26' E 036°44'3 6.9
2018-Apr-20 05:00N 45°24' E 036°41'3 6.3
2018-Apr-20 04:30N 45°21' E 036°39'3 5.9
2018-Apr-20 04:00N 45°20' E 036°35'4 8.0
2018-Apr-20 03:30N 45°18' E 036°30'3 6.2
2018-Apr-20 03:00N 45°15' E 036°29'2 3.1
2018-Apr-20 02:26N 45°14' E 036°30'0 0.0
2018-Apr-19 23:20N 45°14' E 036°30'0 0.0
2018-Apr-19 22:59N 45°14' E 036°30'0 0.4
2018-Apr-19 22:30N 45°14' E 036°30'3 5.9
2018-Apr-19 22:00N 45°11' E 036°30'  
2018-Apr-10 13:53N 45°08' E 036°28'3 7.9
2018-Apr-10 13:30N 45°11' E 036°28'4 7.9
2018-Apr-10 13:00N 45°15' E 036°28'4 6.6
2018-Apr-10 12:28N 45°18' E 036°30'4 7.9
2018-Apr-10 12:00N 45°20' E 036°35'4 7.4
2018-Apr-10 11:31N 45°22' E 036°40'3 6.0
2018-Apr-10 11:00N 45°25' E 036°41'3 6.0
2018-Apr-10 10:30N 45°28' E 036°40'1 1.9
2018-Apr-10 09:46N 45°29' E 036°39'0 0.1
2018-Apr-10 09:28N 45°29' E 036°39'0 0.0
2018-Apr-10 08:31N 45°29' E 036°39'0 0.1
2018-Apr-10 08:28N 45°29' E 036°39'0 0.0
2018-Apr-10 07:55N 45°29' E 036°39'0 0.0
2018-Apr-10 07:28N 45°29' E 036°39'0 0.0
2018-Apr-10 06:58N 45°29' E 036°39'0 0.0
2018-Apr-10 06:28N 45°29' E 036°39'0 0.0
2018-Apr-10 05:58N 45°29' E 036°39'  

Dump ship's entire track history